sensor_id;sensor_type;location;lat;lon;timestamp;P1;durP1;ratioP1;P2;durP2;ratioP2
7171;SDS011;3627;46.544;14.944;2023-08-30T00:02:09;1.05;;;1.02;;
7171;SDS011;3627;46.544;14.944;2023-08-30T00:04:35;1.13;;;1.13;;
7171;SDS011;3627;46.544;14.944;2023-08-30T00:07:01;1.27;;;1.27;;
7171;SDS011;3627;46.544;14.944;2023-08-30T00:09:28;0.77;;;0.77;;
7171;SDS011;3627;46.544;14.944;2023-08-30T00:11:54;0.80;;;0.80;;
7171;SDS011;3627;46.544;14.944;2023-08-30T00:14:22;1.13;;;1.13;;
7171;SDS011;3627;46.544;14.944;2023-08-30T00:16:48;1.65;;;1.08;;
7171;SDS011;3627;46.544;14.944;2023-08-30T00:19:15;0.95;;;0.95;;
7171;SDS011;3627;46.544;14.944;2023-08-30T00:21:41;1.23;;;0.90;;
7171;SDS011;3627;46.544;14.944;2023-08-30T00:24:08;1.02;;;1.02;;
7171;SDS011;3627;46.544;14.944;2023-08-30T00:26:35;1.10;;;0.98;;
7171;SDS011;3627;46.544;14.944;2023-08-30T00:29:01;0.90;;;0.90;;
7171;SDS011;3627;46.544;14.944;2023-08-30T00:31:29;0.90;;;0.90;;
7171;SDS011;3627;46.544;14.944;2023-08-30T00:33:55;1.08;;;0.95;;
7171;SDS011;3627;46.544;14.944;2023-08-30T00:36:21;2.15;;;1.10;;
7171;SDS011;3627;46.544;14.944;2023-08-30T00:38:48;3.10;;;1.15;;
7171;SDS011;3627;46.544;14.944;2023-08-30T00:41:14;0.82;;;0.82;;
7171;SDS011;3627;46.544;14.944;2023-08-30T00:43:40;1.10;;;1.10;;
7171;SDS011;3627;46.544;14.944;2023-08-30T00:46:07;0.90;;;0.90;;
7171;SDS011;3627;46.544;14.944;2023-08-30T00:48:35;0.80;;;0.80;;
7171;SDS011;3627;46.544;14.944;2023-08-30T00:51:01;1.63;;;0.90;;
7171;SDS011;3627;46.544;14.944;2023-08-30T00:53:27;1.58;;;0.93;;
7171;SDS011;3627;46.544;14.944;2023-08-30T00:55:54;0.98;;;0.90;;
7171;SDS011;3627;46.544;14.944;2023-08-30T00:58:20;0.90;;;0.90;;
7171;SDS011;3627;46.544;14.944;2023-08-30T01:00:47;3.50;;;1.00;;
7171;SDS011;3627;46.544;14.944;2023-08-30T01:03:13;1.00;;;1.00;;
7171;SDS011;3627;46.544;14.944;2023-08-30T01:05:41;1.75;;;1.17;;
7171;SDS011;3627;46.544;14.944;2023-08-30T01:08:07;1.15;;;1.08;;
7171;SDS011;3627;46.544;14.944;2023-08-30T01:10:38;1.15;;;1.08;;
7171;SDS011;3627;46.544;14.944;2023-08-30T01:13:06;1.13;;;1.13;;
7171;SDS011;3627;46.544;14.944;2023-08-30T01:15:34;1.27;;;1.10;;
7171;SDS011;3627;46.544;14.944;2023-08-30T01:18:02;1.38;;;1.15;;
7171;SDS011;3627;46.544;14.944;2023-08-30T01:20:30;0.80;;;0.80;;
7171;SDS011;3627;46.544;14.944;2023-08-30T01:23:03;2.35;;;1.10;;
7171;SDS011;3627;46.544;14.944;2023-08-30T01:25:32;1.00;;;1.00;;
7171;SDS011;3627;46.544;14.944;2023-08-30T01:28:04;1.05;;;1.00;;
7171;SDS011;3627;46.544;14.944;2023-08-30T01:30:32;0.80;;;0.80;;
7171;SDS011;3627;46.544;14.944;2023-08-30T01:32:59;2.33;;;1.00;;
7171;SDS011;3627;46.544;14.944;2023-08-30T01:35:26;1.52;;;0.98;;
7171;SDS011;3627;46.544;14.944;2023-08-30T01:37:57;1.00;;;1.00;;
7171;SDS011;3627;46.544;14.944;2023-08-30T01:40:24;0.93;;;0.93;;
7171;SDS011;3627;46.544;14.944;2023-08-30T01:42:51;0.90;;;0.90;;
7171;SDS011;3627;46.544;14.944;2023-08-30T01:45:19;1.65;;;1.30;;
7171;SDS011;3627;46.544;14.944;2023-08-30T01:47:46;1.35;;;1.27;;
7171;SDS011;3627;46.544;14.944;2023-08-30T01:50:14;1.55;;;1.10;;
7171;SDS011;3627;46.544;14.944;2023-08-30T01:52:41;1.10;;;1.10;;
7171;SDS011;3627;46.544;14.944;2023-08-30T01:55:08;0.90;;;0.90;;
7171;SDS011;3627;46.544;14.944;2023-08-30T01:57:34;1.10;;;1.10;;
7171;SDS011;3627;46.544;14.944;2023-08-30T02:00:01;1.00;;;1.00;;
7171;SDS011;3627;46.544;14.944;2023-08-30T02:02:29;3.10;;;1.25;;
7171;SDS011;3627;46.544;14.944;2023-08-30T02:04:56;1.38;;;1.20;;
7171;SDS011;3627;46.544;14.944;2023-08-30T02:10:05;1.05;;;1.05;;
7171;SDS011;3627;46.544;14.944;2023-08-30T02:12:34;1.13;;;1.13;;
7171;SDS011;3627;46.544;14.944;2023-08-30T02:15:02;0.90;;;0.90;;
7171;SDS011;3627;46.544;14.944;2023-08-30T02:17:31;1.45;;;1.00;;
7171;SDS011;3627;46.544;14.944;2023-08-30T02:19:57;1.25;;;1.13;;
7171;SDS011;3627;46.544;14.944;2023-08-30T02:22:24;1.40;;;1.13;;
7171;SDS011;3627;46.544;14.944;2023-08-30T02:24:51;1.80;;;1.60;;
7171;SDS011;3627;46.544;14.944;2023-08-30T02:27:18;1.40;;;1.30;;
7171;SDS011;3627;46.544;14.944;2023-08-30T02:29:44;1.20;;;1.10;;
7171;SDS011;3627;46.544;14.944;2023-08-30T02:32:10;1.33;;;1.23;;
7171;SDS011;3627;46.544;14.944;2023-08-30T02:34:38;1.20;;;1.10;;
7171;SDS011;3627;46.544;14.944;2023-08-30T02:37:04;1.40;;;1.30;;
7171;SDS011;3627;46.544;14.944;2023-08-30T02:39:31;1.30;;;1.20;;
7171;SDS011;3627;46.544;14.944;2023-08-30T02:41:57;1.45;;;1.27;;
7171;SDS011;3627;46.544;14.944;2023-08-30T02:44:24;1.30;;;1.20;;
7171;SDS011;3627;46.544;14.944;2023-08-30T02:46:50;1.50;;;1.40;;
7171;SDS011;3627;46.544;14.944;2023-08-30T02:49:16;1.90;;;1.30;;
7171;SDS011;3627;46.544;14.944;2023-08-30T02:51:44;1.00;;;1.00;;
7171;SDS011;3627;46.544;14.944;2023-08-30T02:54:10;1.33;;;1.23;;
7171;SDS011;3627;46.544;14.944;2023-08-30T02:56:38;1.10;;;1.00;;
7171;SDS011;3627;46.544;14.944;2023-08-30T02:59:05;3.50;;;1.48;;
7171;SDS011;3627;46.544;14.944;2023-08-30T03:01:31;1.10;;;1.10;;
7171;SDS011;3627;46.544;14.944;2023-08-30T03:03:57;1.40;;;1.30;;
7171;SDS011;3627;46.544;14.944;2023-08-30T03:06:24;2.60;;;1.20;;
7171;SDS011;3627;46.544;14.944;2023-08-30T03:08:52;1.33;;;1.23;;
7171;SDS011;3627;46.544;14.944;2023-08-30T03:11:19;1.10;;;1.10;;
7171;SDS011;3627;46.544;14.944;2023-08-30T03:13:45;1.30;;;1.30;;
7171;SDS011;3627;46.544;14.944;2023-08-30T03:16:12;1.60;;;1.50;;
7171;SDS011;3627;46.544;14.944;2023-08-30T03:18:38;2.15;;;1.98;;
7171;SDS011;3627;46.544;14.944;2023-08-30T03:21:04;2.20;;;2.00;;
7171;SDS011;3627;46.544;14.944;2023-08-30T03:23:31;2.47;;;1.98;;
7171;SDS011;3627;46.544;14.944;2023-08-30T03:25:59;2.20;;;2.00;;
7171;SDS011;3627;46.544;14.944;2023-08-30T03:28:25;2.38;;;1.83;;
7171;SDS011;3627;46.544;14.944;2023-08-30T03:30:52;1.90;;;1.80;;
7171;SDS011;3627;46.544;14.944;2023-08-30T03:33:19;1.60;;;1.50;;
7171;SDS011;3627;46.544;14.944;2023-08-30T03:35:45;1.40;;;1.30;;
7171;SDS011;3627;46.544;14.944;2023-08-30T03:38:11;1.95;;;1.52;;
7171;SDS011;3627;46.544;14.944;2023-08-30T03:40:38;5.13;;;3.50;;
7171;SDS011;3627;46.544;14.944;2023-08-30T03:43:06;2.60;;;2.15;;
7171;SDS011;3627;46.544;14.944;2023-08-30T03:45:34;4.38;;;2.60;;
7171;SDS011;3627;46.544;14.944;2023-08-30T03:48:00;3.75;;;2.17;;
7171;SDS011;3627;46.544;14.944;2023-08-30T03:50:26;2.33;;;1.80;;
7171;SDS011;3627;46.544;14.944;2023-08-30T03:52:53;1.70;;;1.60;;
7171;SDS011;3627;46.544;14.944;2023-08-30T03:55:19;2.05;;;1.55;;
7171;SDS011;3627;46.544;14.944;2023-08-30T03:57:46;2.67;;;1.38;;
7171;SDS011;3627;46.544;14.944;2023-08-30T04:00:14;1.27;;;1.20;;
7171;SDS011;3627;46.544;14.944;2023-08-30T04:02:40;1.40;;;1.30;;
7171;SDS011;3627;46.544;14.944;2023-08-30T04:05:07;3.88;;;1.42;;
7171;SDS011;3627;46.544;14.944;2023-08-30T04:07:35;1.60;;;1.50;;
7171;SDS011;3627;46.544;14.944;2023-08-30T04:10:01;1.45;;;1.35;;
7171;SDS011;3627;46.544;14.944;2023-08-30T04:12:31;1.35;;;1.30;;
7171;SDS011;3627;46.544;14.944;2023-08-30T04:14:57;1.85;;;1.33;;
7171;SDS011;3627;46.544;14.944;2023-08-30T04:17:25;2.33;;;1.63;;
7171;SDS011;3627;46.544;14.944;2023-08-30T04:19:51;1.20;;;1.20;;
7171;SDS011;3627;46.544;14.944;2023-08-30T04:22:18;1.40;;;1.30;;
7171;SDS011;3627;46.544;14.944;2023-08-30T04:24:45;2.30;;;1.40;;
7171;SDS011;3627;46.544;14.944;2023-08-30T04:27:11;1.35;;;1.23;;
7171;SDS011;3627;46.544;14.944;2023-08-30T04:29:38;1.30;;;1.20;;
7171;SDS011;3627;46.544;14.944;2023-08-30T04:32:04;1.58;;;1.50;;
7171;SDS011;3627;46.544;14.944;2023-08-30T04:34:32;1.70;;;1.60;;
7171;SDS011;3627;46.544;14.944;2023-08-30T04:36:59;1.67;;;1.58;;
7171;SDS011;3627;46.544;14.944;2023-08-30T04:39:25;2.00;;;1.90;;
7171;SDS011;3627;46.544;14.944;2023-08-30T04:41:51;2.15;;;1.75;;
7171;SDS011;3627;46.544;14.944;2023-08-30T04:44:18;1.58;;;1.48;;
7171;SDS011;3627;46.544;14.944;2023-08-30T04:46:49;1.92;;;1.70;;
7171;SDS011;3627;46.544;14.944;2023-08-30T04:49:17;1.60;;;1.50;;
7171;SDS011;3627;46.544;14.944;2023-08-30T04:51:45;2.42;;;2.00;;
7171;SDS011;3627;46.544;14.944;2023-08-30T04:54:11;1.80;;;1.70;;
7171;SDS011;3627;46.544;14.944;2023-08-30T04:56:38;2.15;;;1.95;;
7171;SDS011;3627;46.544;14.944;2023-08-30T04:59:04;4.93;;;1.77;;
7171;SDS011;3627;46.544;14.944;2023-08-30T05:01:30;2.22;;;1.60;;
7171;SDS011;3627;46.544;14.944;2023-08-30T05:03:57;1.50;;;1.40;;
7171;SDS011;3627;46.544;14.944;2023-08-30T05:06:23;1.55;;;1.45;;
7171;SDS011;3627;46.544;14.944;2023-08-30T05:08:51;1.67;;;1.52;;
7171;SDS011;3627;46.544;14.944;2023-08-30T05:11:17;1.80;;;1.70;;
7171;SDS011;3627;46.544;14.944;2023-08-30T05:13:43;2.15;;;1.60;;
7171;SDS011;3627;46.544;14.944;2023-08-30T05:16:10;2.00;;;1.50;;
7171;SDS011;3627;46.544;14.944;2023-08-30T05:18:36;1.60;;;1.50;;
7171;SDS011;3627;46.544;14.944;2023-08-30T05:21:03;1.52;;;1.40;;
7171;SDS011;3627;46.544;14.944;2023-08-30T05:23:30;1.55;;;1.45;;
7171;SDS011;3627;46.544;14.944;2023-08-30T05:25:57;1.45;;;1.30;;
7171;SDS011;3627;46.544;14.944;2023-08-30T05:28:24;2.42;;;1.45;;
7171;SDS011;3627;46.544;14.944;2023-08-30T05:30:50;1.33;;;1.30;;
7171;SDS011;3627;46.544;14.944;2023-08-30T05:33:17;1.40;;;1.30;;
7171;SDS011;3627;46.544;14.944;2023-08-30T05:35:43;1.60;;;1.50;;
7171;SDS011;3627;46.544;14.944;2023-08-30T05:38:09;1.40;;;1.30;;
7171;SDS011;3627;46.544;14.944;2023-08-30T05:40:36;1.60;;;1.50;;
7171;SDS011;3627;46.544;14.944;2023-08-30T05:43:08;1.80;;;1.40;;
7171;SDS011;3627;46.544;14.944;2023-08-30T05:45:35;1.45;;;1.30;;
7171;SDS011;3627;46.544;14.944;2023-08-30T05:48:02;1.88;;;1.45;;
7171;SDS011;3627;46.544;14.944;2023-08-30T05:50:28;1.67;;;1.40;;
7171;SDS011;3627;46.544;14.944;2023-08-30T05:52:55;2.60;;;1.27;;
7171;SDS011;3627;46.544;14.944;2023-08-30T05:55:21;3.47;;;1.70;;
7171;SDS011;3627;46.544;14.944;2023-08-30T05:57:47;2.53;;;1.75;;
7171;SDS011;3627;46.544;14.944;2023-08-30T06:00:15;3.30;;;1.70;;
7171;SDS011;3627;46.544;14.944;2023-08-30T06:02:42;3.13;;;1.60;;
7171;SDS011;3627;46.544;14.944;2023-08-30T06:05:09;3.30;;;1.65;;
7171;SDS011;3627;46.544;14.944;2023-08-30T06:07:35;1.90;;;1.70;;
7171;SDS011;3627;46.544;14.944;2023-08-30T06:10:02;2.45;;;1.60;;
7171;SDS011;3627;46.544;14.944;2023-08-30T06:12:29;1.70;;;1.60;;
7171;SDS011;3627;46.544;14.944;2023-08-30T06:14:56;2.03;;;1.40;;
7171;SDS011;3627;46.544;14.944;2023-08-30T06:17:23;1.80;;;1.70;;
7171;SDS011;3627;46.544;14.944;2023-08-30T06:19:50;1.50;;;1.40;;
7171;SDS011;3627;46.544;14.944;2023-08-30T06:22:17;1.40;;;1.30;;
7171;SDS011;3627;46.544;14.944;2023-08-30T06:24:43;2.65;;;1.42;;
7171;SDS011;3627;46.544;14.944;2023-08-30T06:27:09;2.10;;;1.70;;
7171;SDS011;3627;46.544;14.944;2023-08-30T06:29:36;2.30;;;1.77;;
7171;SDS011;3627;46.544;14.944;2023-08-30T06:32:02;3.63;;;1.75;;
7171;SDS011;3627;46.544;14.944;2023-08-30T06:34:30;1.83;;;1.70;;
7171;SDS011;3627;46.544;14.944;2023-08-30T06:36:56;2.65;;;2.00;;
7171;SDS011;3627;46.544;14.944;2023-08-30T06:39:23;1.60;;;1.50;;
7171;SDS011;3627;46.544;14.944;2023-08-30T06:41:49;1.70;;;1.60;;
7171;SDS011;3627;46.544;14.944;2023-08-30T06:44:16;1.83;;;1.50;;
7171;SDS011;3627;46.544;14.944;2023-08-30T06:46:43;1.48;;;1.38;;
7171;SDS011;3627;46.544;14.944;2023-08-30T06:49:09;1.67;;;1.52;;
7171;SDS011;3627;46.544;14.944;2023-08-30T06:51:37;1.88;;;1.50;;
7171;SDS011;3627;46.544;14.944;2023-08-30T06:54:04;1.55;;;1.45;;
7171;SDS011;3627;46.544;14.944;2023-08-30T06:56:30;2.05;;;1.20;;
7171;SDS011;3627;46.544;14.944;2023-08-30T06:58:57;1.83;;;1.42;;
7171;SDS011;3627;46.544;14.944;2023-08-30T07:01:23;2.25;;;1.33;;
7171;SDS011;3627;46.544;14.944;2023-08-30T07:03:49;1.95;;;1.75;;
7171;SDS011;3627;46.544;14.944;2023-08-30T07:06:16;1.00;;;1.00;;
7171;SDS011;3627;46.544;14.944;2023-08-30T07:08:43;1.30;;;1.20;;
7171;SDS011;3627;46.544;14.944;2023-08-30T07:11:10;1.10;;;1.00;;
7171;SDS011;3627;46.544;14.944;2023-08-30T07:13:36;1.42;;;1.33;;
7171;SDS011;3627;46.544;14.944;2023-08-30T07:16:03;1.38;;;1.27;;
7171;SDS011;3627;46.544;14.944;2023-08-30T07:18:29;1.23;;;1.23;;
7171;SDS011;3627;46.544;14.944;2023-08-30T07:20:56;1.67;;;1.50;;
7171;SDS011;3627;46.544;14.944;2023-08-30T07:23:22;1.88;;;1.20;;
7171;SDS011;3627;46.544;14.944;2023-08-30T07:25:52;1.38;;;1.08;;
7171;SDS011;3627;46.544;14.944;2023-08-30T07:28:19;1.70;;;1.27;;
7171;SDS011;3627;46.544;14.944;2023-08-30T07:30:45;1.27;;;1.17;;
7171;SDS011;3627;46.544;14.944;2023-08-30T07:33:11;1.55;;;1.45;;
7171;SDS011;3627;46.544;14.944;2023-08-30T07:35:38;2.45;;;1.40;;
7171;SDS011;3627;46.544;14.944;2023-08-30T07:38:05;1.30;;;1.20;;
7171;SDS011;3627;46.544;14.944;2023-08-30T07:40:31;1.58;;;1.48;;
7171;SDS011;3627;46.544;14.944;2023-08-30T07:42:59;1.08;;;1.08;;
7171;SDS011;3627;46.544;14.944;2023-08-30T07:45:26;1.95;;;1.40;;
7171;SDS011;3627;46.544;14.944;2023-08-30T07:47:52;1.20;;;1.20;;
7171;SDS011;3627;46.544;14.944;2023-08-30T07:50:18;1.20;;;1.20;;
7171;SDS011;3627;46.544;14.944;2023-08-30T07:52:45;1.02;;;1.02;;
7171;SDS011;3627;46.544;14.944;2023-08-30T07:55:11;1.20;;;1.15;;
7171;SDS011;3627;46.544;14.944;2023-08-30T07:57:36;1.70;;;1.27;;
7171;SDS011;3627;46.544;14.944;2023-08-30T08:00:05;1.67;;;1.20;;
7171;SDS011;3627;46.544;14.944;2023-08-30T08:02:31;1.33;;;1.02;;
7171;SDS011;3627;46.544;14.944;2023-08-30T08:04:58;1.30;;;1.17;;
7171;SDS011;3627;46.544;14.944;2023-08-30T08:07:24;2.20;;;1.42;;
7171;SDS011;3627;46.544;14.944;2023-08-30T08:09:51;1.30;;;1.20;;
7171;SDS011;3627;46.544;14.944;2023-08-30T08:12:17;1.13;;;1.02;;
7171;SDS011;3627;46.544;14.944;2023-08-30T08:14:43;1.83;;;1.10;;
7171;SDS011;3627;46.544;14.944;2023-08-30T08:17:11;1.30;;;1.20;;
7171;SDS011;3627;46.544;14.944;2023-08-30T08:19:37;1.30;;;1.17;;
7171;SDS011;3627;46.544;14.944;2023-08-30T08:22:04;1.58;;;1.20;;
7171;SDS011;3627;46.544;14.944;2023-08-30T08:24:31;1.08;;;0.90;;
7171;SDS011;3627;46.544;14.944;2023-08-30T08:26:57;1.48;;;1.05;;
7171;SDS011;3627;46.544;14.944;2023-08-30T08:29:26;1.00;;;1.00;;
7171;SDS011;3627;46.544;14.944;2023-08-30T08:31:52;1.02;;;1.00;;
7171;SDS011;3627;46.544;14.944;2023-08-30T08:34:20;0.90;;;0.90;;
7171;SDS011;3627;46.544;14.944;2023-08-30T08:36:46;1.65;;;1.10;;
7171;SDS011;3627;46.544;14.944;2023-08-30T08:39:13;0.80;;;0.80;;
7171;SDS011;3627;46.544;14.944;2023-08-30T08:41:40;1.83;;;1.10;;
7171;SDS011;3627;46.544;14.944;2023-08-30T08:44:07;1.20;;;1.10;;
7171;SDS011;3627;46.544;14.944;2023-08-30T08:46:34;3.17;;;1.20;;
7171;SDS011;3627;46.544;14.944;2023-08-30T08:49:01;1.25;;;1.15;;
7171;SDS011;3627;46.544;14.944;2023-08-30T08:51:31;1.20;;;1.10;;
7171;SDS011;3627;46.544;14.944;2023-08-30T08:54:00;1.08;;;1.08;;
7171;SDS011;3627;46.544;14.944;2023-08-30T08:56:28;1.10;;;1.10;;
7171;SDS011;3627;46.544;14.944;2023-08-30T08:58:55;2.05;;;0.90;;
7171;SDS011;3627;46.544;14.944;2023-08-30T09:01:22;1.13;;;1.00;;
7171;SDS011;3627;46.544;14.944;2023-08-30T09:03:49;0.90;;;0.90;;
7171;SDS011;3627;46.544;14.944;2023-08-30T09:06:16;1.10;;;1.10;;
7171;SDS011;3627;46.544;14.944;2023-08-30T09:08:44;1.13;;;1.02;;
7171;SDS011;3627;46.544;14.944;2023-08-30T09:11:10;1.38;;;1.10;;
7171;SDS011;3627;46.544;14.944;2023-08-30T09:13:37;1.92;;;0.98;;
7171;SDS011;3627;46.544;14.944;2023-08-30T09:16:10;0.95;;;0.95;;
7171;SDS011;3627;46.544;14.944;2023-08-30T09:18:37;1.05;;;1.00;;
7171;SDS011;3627;46.544;14.944;2023-08-30T09:21:07;1.00;;;1.00;;
7171;SDS011;3627;46.544;14.944;2023-08-30T09:23:33;1.23;;;1.13;;
7171;SDS011;3627;46.544;14.944;2023-08-30T09:26:01;1.33;;;0.90;;
7171;SDS011;3627;46.544;14.944;2023-08-30T09:28:28;1.17;;;1.08;;
7171;SDS011;3627;46.544;14.944;2023-08-30T09:30:56;1.15;;;1.10;;
7171;SDS011;3627;46.544;14.944;2023-08-30T09:33:23;2.05;;;1.08;;
7171;SDS011;3627;46.544;14.944;2023-08-30T09:35:55;1.02;;;0.90;;
7171;SDS011;3627;46.544;14.944;2023-08-30T09:38:22;0.98;;;0.90;;
7171;SDS011;3627;46.544;14.944;2023-08-30T09:40:48;0.85;;;0.85;;
7171;SDS011;3627;46.544;14.944;2023-08-30T09:43:19;1.10;;;0.90;;
7171;SDS011;3627;46.544;14.944;2023-08-30T09:45:48;1.65;;;0.80;;
7171;SDS011;3627;46.544;14.944;2023-08-30T09:48:16;0.98;;;0.95;;
7171;SDS011;3627;46.544;14.944;2023-08-30T09:50:43;0.95;;;0.90;;
7171;SDS011;3627;46.544;14.944;2023-08-30T09:53:11;0.82;;;0.80;;
7171;SDS011;3627;46.544;14.944;2023-08-30T09:55:41;1.38;;;1.20;;
7171;SDS011;3627;46.544;14.944;2023-08-30T09:58:09;2.55;;;1.17;;
7171;SDS011;3627;46.544;14.944;2023-08-30T10:00:37;1.20;;;1.10;;
7171;SDS011;3627;46.544;14.944;2023-08-30T10:03:03;2.22;;;1.40;;
7171;SDS011;3627;46.544;14.944;2023-08-30T10:05:30;2.03;;;1.13;;
7171;SDS011;3627;46.544;14.944;2023-08-30T10:07:57;1.88;;;1.20;;
7171;SDS011;3627;46.544;14.944;2023-08-30T10:10:24;2.20;;;1.20;;
7171;SDS011;3627;46.544;14.944;2023-08-30T10:12:51;2.80;;;1.08;;
7171;SDS011;3627;46.544;14.944;2023-08-30T10:15:19;1.05;;;0.95;;
7171;SDS011;3627;46.544;14.944;2023-08-30T10:17:47;4.63;;;1.10;;
7171;SDS011;3627;46.544;14.944;2023-08-30T10:20:16;1.38;;;1.13;;
7171;SDS011;3627;46.544;14.944;2023-08-30T10:22:42;3.78;;;1.33;;
7171;SDS011;3627;46.544;14.944;2023-08-30T10:25:10;1.05;;;1.00;;
7171;SDS011;3627;46.544;14.944;2023-08-30T10:27:40;0.73;;;0.73;;
7171;SDS011;3627;46.544;14.944;2023-08-30T10:30:07;1.88;;;1.00;;
7171;SDS011;3627;46.544;14.944;2023-08-30T10:32:38;0.85;;;0.80;;
7171;SDS011;3627;46.544;14.944;2023-08-30T10:35:06;1.10;;;1.00;;
7171;SDS011;3627;46.544;14.944;2023-08-30T10:37:33;2.65;;;1.02;;
7171;SDS011;3627;46.544;14.944;2023-08-30T10:39:59;1.00;;;0.85;;
7171;SDS011;3627;46.544;14.944;2023-08-30T10:42:26;3.33;;;1.48;;
7171;SDS011;3627;46.544;14.944;2023-08-30T10:44:56;1.27;;;1.00;;
7171;SDS011;3627;46.544;14.944;2023-08-30T10:47:22;0.70;;;0.70;;
7171;SDS011;3627;46.544;14.944;2023-08-30T10:49:53;1.67;;;1.13;;
7171;SDS011;3627;46.544;14.944;2023-08-30T10:52:20;2.05;;;1.02;;
7171;SDS011;3627;46.544;14.944;2023-08-30T10:54:47;1.65;;;0.90;;
7171;SDS011;3627;46.544;14.944;2023-08-30T10:57:14;1.65;;;0.80;;
7171;SDS011;3627;46.544;14.944;2023-08-30T10:59:47;0.80;;;0.80;;
7171;SDS011;3627;46.544;14.944;2023-08-30T11:02:13;0.80;;;0.80;;
7171;SDS011;3627;46.544;14.944;2023-08-30T11:04:40;1.13;;;1.02;;
7171;SDS011;3627;46.544;14.944;2023-08-30T11:07:07;2.05;;;1.00;;
7171;SDS011;3627;46.544;14.944;2023-08-30T11:09:36;2.15;;;0.90;;
7171;SDS011;3627;46.544;14.944;2023-08-30T11:12:04;2.88;;;0.80;;
7171;SDS011;3627;46.544;14.944;2023-08-30T11:14:31;1.45;;;0.80;;
7171;SDS011;3627;46.544;14.944;2023-08-30T11:16:57;0.80;;;0.80;;
7171;SDS011;3627;46.544;14.944;2023-08-30T11:19:29;0.95;;;0.80;;
7171;SDS011;3627;46.544;14.944;2023-08-30T11:21:55;1.45;;;0.70;;
7171;SDS011;3627;46.544;14.944;2023-08-30T11:24:22;4.50;;;0.98;;
7171;SDS011;3627;46.544;14.944;2023-08-30T11:26:53;2.97;;;1.05;;
7171;SDS011;3627;46.544;14.944;2023-08-30T11:29:19;2.60;;;0.98;;
7171;SDS011;3627;46.544;14.944;2023-08-30T11:31:46;3.28;;;1.20;;
7171;SDS011;3627;46.544;14.944;2023-08-30T11:34:12;9.18;;;1.33;;
7171;SDS011;3627;46.544;14.944;2023-08-30T11:36:38;3.20;;;1.20;;
7171;SDS011;3627;46.544;14.944;2023-08-30T11:39:05;3.92;;;1.00;;
7171;SDS011;3627;46.544;14.944;2023-08-30T11:41:33;1.38;;;0.90;;
7171;SDS011;3627;46.544;14.944;2023-08-30T11:44:00;1.38;;;1.13;;
7171;SDS011;3627;46.544;14.944;2023-08-30T11:46:28;0.90;;;0.90;;
7171;SDS011;3627;46.544;14.944;2023-08-30T11:48:56;1.40;;;0.80;;
7171;SDS011;3627;46.544;14.944;2023-08-30T11:51:22;1.05;;;0.88;;
7171;SDS011;3627;46.544;14.944;2023-08-30T11:53:49;0.95;;;0.95;;
7171;SDS011;3627;46.544;14.944;2023-08-30T11:56:15;1.73;;;0.90;;
7171;SDS011;3627;46.544;14.944;2023-08-30T11:58:42;1.05;;;1.00;;
7171;SDS011;3627;46.544;14.944;2023-08-30T12:01:10;1.00;;;0.90;;
7171;SDS011;3627;46.544;14.944;2023-08-30T12:03:37;1.33;;;1.10;;
7171;SDS011;3627;46.544;14.944;2023-08-30T12:06:08;1.55;;;1.00;;
7171;SDS011;3627;46.544;14.944;2023-08-30T12:08:35;0.80;;;0.80;;
7171;SDS011;3627;46.544;14.944;2023-08-30T12:11:01;1.08;;;1.08;;
7171;SDS011;3627;46.544;14.944;2023-08-30T12:13:28;1.25;;;1.15;;
7171;SDS011;3627;46.544;14.944;2023-08-30T12:15:55;1.23;;;1.13;;
7171;SDS011;3627;46.544;14.944;2023-08-30T12:18:22;1.30;;;1.08;;
7171;SDS011;3627;46.544;14.944;2023-08-30T12:20:53;1.27;;;1.13;;
7171;SDS011;3627;46.544;14.944;2023-08-30T12:23:20;0.77;;;0.77;;
7171;SDS011;3627;46.544;14.944;2023-08-30T12:25:56;0.95;;;0.80;;
7171;SDS011;3627;46.544;14.944;2023-08-30T12:28:24;0.52;;;0.52;;
7171;SDS011;3627;46.544;14.944;2023-08-30T12:30:50;0.80;;;0.80;;
7171;SDS011;3627;46.544;14.944;2023-08-30T12:33:16;0.60;;;0.60;;
7171;SDS011;3627;46.544;14.944;2023-08-30T12:35:44;0.70;;;0.70;;
7171;SDS011;3627;46.544;14.944;2023-08-30T12:38:10;0.52;;;0.52;;
7171;SDS011;3627;46.544;14.944;2023-08-30T12:40:42;1.33;;;1.00;;
7171;SDS011;3627;46.544;14.944;2023-08-30T12:43:08;0.70;;;0.70;;
7171;SDS011;3627;46.544;14.944;2023-08-30T12:45:35;3.33;;;0.82;;
7171;SDS011;3627;46.544;14.944;2023-08-30T12:48:02;0.80;;;0.80;;
7171;SDS011;3627;46.544;14.944;2023-08-30T12:50:28;0.95;;;0.93;;
7171;SDS011;3627;46.544;14.944;2023-08-30T12:52:56;0.80;;;0.80;;
7171;SDS011;3627;46.544;14.944;2023-08-30T12:55:22;2.15;;;1.08;;
7171;SDS011;3627;46.544;14.944;2023-08-30T12:57:49;0.90;;;0.90;;
7171;SDS011;3627;46.544;14.944;2023-08-30T13:00:15;0.98;;;0.70;;
7171;SDS011;3627;46.544;14.944;2023-08-30T13:02:42;1.65;;;0.70;;
7171;SDS011;3627;46.544;14.944;2023-08-30T13:05:08;1.23;;;1.00;;
7171;SDS011;3627;46.544;14.944;2023-08-30T13:07:34;1.80;;;1.13;;
7171;SDS011;3627;46.544;14.944;2023-08-30T13:10:02;1.42;;;1.02;;
7171;SDS011;3627;46.544;14.944;2023-08-30T13:12:29;0.95;;;0.90;;
7171;SDS011;3627;46.544;14.944;2023-08-30T13:14:55;0.93;;;0.93;;
7171;SDS011;3627;46.544;14.944;2023-08-30T13:17:21;0.90;;;0.90;;
7171;SDS011;3627;46.544;14.944;2023-08-30T13:19:48;0.98;;;0.98;;
7171;SDS011;3627;46.544;14.944;2023-08-30T13:22:14;2.13;;;0.90;;
7171;SDS011;3627;46.544;14.944;2023-08-30T13:24:41;0.80;;;0.80;;
7171;SDS011;3627;46.544;14.944;2023-08-30T13:27:08;0.80;;;0.80;;
7171;SDS011;3627;46.544;14.944;2023-08-30T13:29:35;1.00;;;0.90;;
7171;SDS011;3627;46.544;14.944;2023-08-30T13:32:01;0.95;;;0.95;;
7171;SDS011;3627;46.544;14.944;2023-08-30T13:34:28;1.73;;;0.90;;
7171;SDS011;3627;46.544;14.944;2023-08-30T13:36:54;1.00;;;1.00;;
7171;SDS011;3627;46.544;14.944;2023-08-30T13:39:20;2.78;;;1.25;;
7171;SDS011;3627;46.544;14.944;2023-08-30T13:41:47;0.80;;;0.80;;
7171;SDS011;3627;46.544;14.944;2023-08-30T13:44:15;2.33;;;1.10;;
7171;SDS011;3627;46.544;14.944;2023-08-30T13:46:42;0.85;;;0.82;;
7171;SDS011;3627;46.544;14.944;2023-08-30T13:49:09;1.20;;;1.10;;
7171;SDS011;3627;46.544;14.944;2023-08-30T13:51:35;1.98;;;1.27;;
7171;SDS011;3627;46.544;14.944;2023-08-30T13:54:02;3.67;;;1.27;;
7171;SDS011;3627;46.544;14.944;2023-08-30T13:56:29;1.83;;;0.90;;
7171;SDS011;3627;46.544;14.944;2023-08-30T13:58:55;2.42;;;1.20;;
7171;SDS011;3627;46.544;14.944;2023-08-30T14:01:23;2.22;;;1.10;;
7171;SDS011;3627;46.544;14.944;2023-08-30T14:03:49;3.28;;;0.82;;
7171;SDS011;3627;46.544;14.944;2023-08-30T14:06:16;1.00;;;1.00;;
7171;SDS011;3627;46.544;14.944;2023-08-30T14:08:42;1.33;;;0.90;;
7171;SDS011;3627;46.544;14.944;2023-08-30T14:11:09;2.85;;;1.50;;
7171;SDS011;3627;46.544;14.944;2023-08-30T14:13:35;1.23;;;1.20;;
7171;SDS011;3627;46.544;14.944;2023-08-30T14:16:02;1.30;;;1.20;;
7171;SDS011;3627;46.544;14.944;2023-08-30T14:18:30;2.60;;;1.10;;
7171;SDS011;3627;46.544;14.944;2023-08-30T14:20:56;1.02;;;1.02;;
7171;SDS011;3627;46.544;14.944;2023-08-30T14:23:23;2.70;;;1.40;;
7171;SDS011;3627;46.544;14.944;2023-08-30T14:25:54;1.13;;;1.10;;
7171;SDS011;3627;46.544;14.944;2023-08-30T14:28:21;1.42;;;1.33;;
7171;SDS011;3627;46.544;14.944;2023-08-30T14:30:47;1.30;;;1.20;;
7171;SDS011;3627;46.544;14.944;2023-08-30T14:33:14;1.17;;;1.00;;
7171;SDS011;3627;46.544;14.944;2023-08-30T14:35:42;0.95;;;0.90;;
7171;SDS011;3627;46.544;14.944;2023-08-30T14:38:08;0.90;;;0.90;;
7171;SDS011;3627;46.544;14.944;2023-08-30T14:40:35;1.30;;;1.20;;
7171;SDS011;3627;46.544;14.944;2023-08-30T14:43:02;1.88;;;1.25;;
7171;SDS011;3627;46.544;14.944;2023-08-30T14:45:29;2.55;;;1.08;;
7171;SDS011;3627;46.544;14.944;2023-08-30T14:47:55;1.00;;;0.90;;
7171;SDS011;3627;46.544;14.944;2023-08-30T14:50:22;2.35;;;1.80;;
7171;SDS011;3627;46.544;14.944;2023-08-30T14:52:50;2.58;;;1.55;;
7171;SDS011;3627;46.544;14.944;2023-08-30T14:55:19;1.90;;;1.70;;
7171;SDS011;3627;46.544;14.944;2023-08-30T14:57:46;1.48;;;1.15;;
7171;SDS011;3627;46.544;14.944;2023-08-30T15:00:12;3.05;;;1.40;;
7171;SDS011;3627;46.544;14.944;2023-08-30T15:02:39;2.83;;;1.27;;